createdAt,value
2018-05-06T00:00:55.096Z,16.58
2018-05-06T00:01:55.085Z,16.54
2018-05-06T00:02:55.132Z,16.56
2018-05-06T00:03:55.213Z,16.51
2018-05-06T00:04:55.146Z,16.49
2018-05-06T00:05:55.204Z,16.43
2018-05-06T00:06:54.927Z,16.51
2018-05-06T00:07:55.242Z,16.47
2018-05-06T00:08:55.259Z,16.38
2018-05-06T00:09:55.276Z,16.39
2018-05-06T00:10:55.281Z,16.42
2018-05-06T00:11:55.313Z,16.41
2018-05-06T00:12:54.769Z,16.41
2018-05-06T00:13:55.061Z,16.35
2018-05-06T00:14:54.806Z,16.29
2018-05-06T00:15:55.118Z,16.36
2018-05-06T00:16:55.110Z,16.29
2018-05-06T00:17:55.203Z,16.29
2018-05-06T00:18:55.276Z,16.28
2018-05-06T00:19:55.189Z,16.31
2018-05-06T00:20:55.470Z,16.24
2018-05-06T00:21:55.513Z,16.26
2018-05-06T00:22:55.236Z,16.28
2018-05-06T00:23:55.555Z,16.24
2018-05-06T00:24:55.016Z,16.2
2018-05-06T00:25:55.575Z,16.17
2018-05-06T00:26:55.593Z,16.16
2018-05-06T00:27:55.081Z,16.13
2018-05-06T00:28:55.373Z,16.15
2018-05-06T00:29:55.650Z,16.17
2018-05-06T00:30:55.700Z,16.15
2018-05-06T00:31:55.713Z,16.09
2018-05-06T00:32:55.742Z,16.12
2018-05-06T00:33:55.742Z,16.08
2018-05-06T00:34:55.749Z,16
2018-05-06T00:35:55.783Z,16.02
2018-05-06T00:36:55.801Z,16.02
2018-05-06T00:37:55.560Z,16.01
2018-05-06T00:38:55.884Z,15.94
2018-05-06T00:39:55.941Z,15.97
2018-05-06T00:40:55.899Z,16.08
2018-05-06T00:41:55.897Z,16.01
2018-05-06T00:42:55.927Z,15.97
2018-05-06T00:43:55.985Z,15.97
2018-05-06T00:44:55.946Z,15.86
2018-05-06T00:45:55.981Z,15.91
2018-05-06T00:46:55.979Z,15.9
2018-05-06T00:47:56.036Z,15.91
2018-05-06T00:48:55.763Z,15.91
2018-05-06T00:49:55.504Z,15.88
2018-05-06T00:50:55.799Z,15.86
2018-05-06T00:51:55.800Z,15.86
2018-05-06T00:52:55.826Z,15.88
2018-05-06T00:53:55.907Z,15.84
2018-05-06T00:54:55.884Z,15.83
2018-05-06T00:55:55.902Z,15.84
2018-05-06T00:56:55.928Z,15.79
2018-05-06T00:57:56.208Z,15.76
2018-05-06T00:58:56.283Z,15.68
2018-05-06T00:59:55.973Z,15.72
2018-05-06T01:00:55.712Z,15.75
2018-05-06T01:01:56.022Z,15.72
2018-05-06T01:02:56.303Z,15.65
2018-05-06T01:03:56.135Z,15.68
2018-05-06T01:04:56.390Z,15.64
2018-05-06T01:05:56.109Z,15.59
2018-05-06T01:06:56.392Z,15.67
2018-05-06T01:07:56.127Z,15.62
2018-05-06T01:08:56.135Z,15.55
2018-05-06T01:09:56.454Z,15.65
2018-05-06T01:10:56.467Z,15.64
2018-05-06T01:11:56.507Z,15.62
2018-05-06T01:12:56.240Z,15.62
2018-05-06T01:13:56.593Z,15.58
2018-05-06T01:14:56.557Z,15.54
2018-05-06T01:15:56.551Z,15.51
2018-05-06T01:16:56.570Z,15.55
2018-05-06T01:17:56.607Z,15.51
2018-05-06T01:18:56.346Z,15.51
2018-05-06T01:19:56.629Z,15.51
2018-05-06T01:20:56.394Z,15.47
2018-05-06T01:21:56.391Z,15.43
2018-05-06T01:22:56.686Z,15.47
2018-05-06T01:23:56.434Z,15.43
2018-05-06T01:24:56.757Z,15.46
2018-05-06T01:25:56.767Z,15.44
2018-05-06T01:26:56.764Z,15.39
2018-05-06T01:27:56.805Z,15.44
2018-05-06T01:28:56.805Z,15.42
2018-05-06T01:29:56.841Z,15.43
2018-05-06T01:30:56.845Z,15.39
2018-05-06T01:31:56.883Z,15.37
2018-05-06T01:32:56.328Z,15.33
2018-05-06T01:33:56.913Z,15.4
2018-05-06T01:34:56.931Z,15.28
2018-05-06T01:35:56.945Z,15.31
2018-05-06T01:36:56.978Z,15.31
2018-05-06T01:37:56.986Z,15.33
2018-05-06T01:38:57.000Z,15.27
2018-05-06T01:39:56.923Z,15.18
2018-05-06T01:40:57.042Z,15.27
2018-05-06T01:41:57.064Z,15.17
2018-05-06T01:42:57.069Z,15.35
2018-05-06T01:43:56.882Z,15.17
2018-05-06T01:44:57.134Z,15.28
2018-05-06T01:45:56.878Z,15.18
2018-05-06T01:46:56.903Z,15.24
2018-05-06T01:47:56.909Z,15.21
2018-05-06T01:48:57.215Z,15.14
2018-05-06T01:49:57.220Z,15.21
2018-05-06T01:50:57.243Z,15.15
2018-05-06T01:51:57.256Z,15.07
2018-05-06T01:52:57.014Z,15.07
2018-05-06T01:53:57.099Z,15.07
2018-05-06T01:54:57.322Z,15.19
2018-05-06T01:55:57.054Z,15.14
2018-05-06T01:56:57.089Z,15.17
2018-05-06T01:57:57.370Z,15.11
2018-05-06T01:58:57.401Z,15.06
2018-05-06T01:59:57.407Z,15.06
2018-05-06T02:00:57.660Z,15.02
2018-05-06T02:01:57.459Z,14.99
2018-05-06T02:02:57.483Z,15.04
2018-05-06T02:03:57.543Z,15.04
2018-05-06T02:04:57.521Z,15.02
2018-05-06T02:05:57.513Z,14.97
2018-05-06T02:06:57.563Z,15
2018-05-06T02:07:57.263Z,15
2018-05-06T02:08:57.349Z,14.97
2018-05-06T02:09:57.601Z,14.96
2018-05-06T02:10:57.630Z,15.02
2018-05-06T02:11:57.357Z,14.96
2018-05-06T02:12:57.101Z,14.94
2018-05-06T02:13:57.431Z,14.97
2018-05-06T02:14:57.402Z,14.92
2018-05-06T02:15:57.721Z,14.89
2018-05-06T02:16:57.824Z,14.94
2018-05-06T02:17:57.468Z,14.81
2018-05-06T02:18:57.541Z,14.85
2018-05-06T02:19:57.801Z,14.85
2018-05-06T02:20:57.259Z,14.82
2018-05-06T02:21:57.562Z,14.77
2018-05-06T02:22:57.585Z,14.79
2018-05-06T02:23:57.644Z,14.85
2018-05-06T02:24:57.616Z,14.78
2018-05-06T02:25:57.902Z,14.79
2018-05-06T02:26:57.637Z,14.73
2018-05-06T02:27:57.365Z,14.73
2018-05-06T02:28:57.673Z,14.79
2018-05-06T02:29:57.708Z,14.72
2018-05-06T02:30:58.031Z,14.77
2018-05-06T02:31:58.036Z,14.69
2018-05-06T02:32:57.774Z,14.79
2018-05-06T02:33:58.120Z,14.72
2018-05-06T02:34:58.117Z,14.7
2018-05-06T02:35:58.102Z,14.73
2018-05-06T02:36:57.837Z,14.66
2018-05-06T02:37:58.111Z,14.65
2018-05-06T02:38:58.145Z,14.66
2018-05-06T02:39:57.874Z,14.68
2018-05-06T02:40:58.180Z,14.62
2018-05-06T02:41:58.203Z,14.58
2018-05-06T02:42:58.223Z,14.5
2018-05-06T02:43:58.265Z,14.58
2018-05-06T02:44:58.250Z,14.5
2018-05-06T02:45:58.000Z,14.54
2018-05-06T02:46:58.309Z,14.55
2018-05-06T02:47:58.297Z,14.5
2018-05-06T02:48:58.316Z,14.45
2018-05-06T02:49:58.356Z,14.51
2018-05-06T02:50:58.387Z,14.58
2018-05-06T02:51:58.405Z,14.53
2018-05-06T02:52:58.426Z,14.55
2018-05-06T02:53:58.453Z,14.48
2018-05-06T02:54:58.431Z,14.5
2018-05-06T02:55:58.458Z,14.5
2018-05-06T02:56:58.488Z,14.55
2018-05-06T02:57:58.507Z,14.45
2018-05-06T02:58:57.957Z,14.4
2018-05-06T02:59:59.007Z,14.45
2018-05-06T03:00:58.281Z,14.45
2018-05-06T03:01:58.295Z,14.43
2018-05-06T03:02:58.593Z,14.45
2018-05-06T03:03:58.326Z,14.37
2018-05-06T03:04:58.800Z,14.47
2018-05-06T03:05:58.642Z,14.47
2018-05-06T03:06:58.681Z,14.33
2018-05-06T03:07:58.687Z,14.29
2018-05-06T03:08:58.416Z,14.37
2018-05-06T03:09:58.718Z,14.35
2018-05-06T03:10:58.478Z,14.32
2018-05-06T03:11:58.745Z,14.35
2018-05-06T03:12:58.773Z,14.3
2018-05-06T03:13:58.724Z,14.26
2018-05-06T03:14:58.827Z,14.32
2018-05-06T03:15:58.847Z,14.28
2018-05-06T03:16:58.840Z,14.3
2018-05-06T03:17:58.572Z,14.29
2018-05-06T03:18:58.595Z,14.22
2018-05-06T03:19:58.609Z,14.22
2018-05-06T03:20:58.636Z,14.3
2018-05-06T03:21:58.662Z,14.2
2018-05-06T03:22:58.680Z,14.23
2018-05-06T03:23:58.974Z,14.2
2018-05-06T03:24:58.758Z,14.23
2018-05-06T03:25:58.720Z,14.2
2018-05-06T03:26:58.770Z,14.18
2018-05-06T03:27:59.070Z,14.22
2018-05-06T03:28:59.051Z,14.22
2018-05-06T03:29:59.090Z,14.12
2018-05-06T03:30:59.107Z,14.14
2018-05-06T03:31:59.164Z,14.12
2018-05-06T03:32:59.155Z,14.17
2018-05-06T03:33:59.171Z,14.29
2018-05-06T03:34:59.172Z,14.14
2018-05-06T03:35:59.185Z,14.14
2018-05-06T03:36:59.238Z,14.2
2018-05-06T03:37:59.237Z,14.12
2018-05-06T03:38:59.239Z,14.15
2018-05-06T03:39:59.269Z,14.15
2018-05-06T03:40:59.022Z,14.11
2018-05-06T03:41:59.319Z,14.14
2018-05-06T03:42:59.053Z,14.11
2018-05-06T03:43:59.345Z,14.12
2018-05-06T03:44:59.360Z,14.1
2018-05-06T03:45:59.093Z,14.1
2018-05-06T03:46:59.410Z,14.05
2018-05-06T03:47:59.136Z,14.1
2018-05-06T03:48:59.436Z,14.07
2018-05-06T03:49:59.513Z,14
2018-05-06T03:50:59.473Z,14.08
2018-05-06T03:51:59.472Z,14.07
2018-05-06T03:52:59.503Z,14.04
2018-05-06T03:53:59.533Z,14.04
2018-05-06T03:54:59.560Z,14.05
2018-05-06T03:55:59.581Z,13.99
2018-05-06T03:56:59.580Z,14
2018-05-06T03:57:59.583Z,13.99
2018-05-06T03:58:59.332Z,13.97
2018-05-06T03:59:59.666Z,13.97
2018-05-06T04:00:59.666Z,13.95
2018-05-06T04:01:59.684Z,13.99
2018-05-06T04:02:59.681Z,13.97
2018-05-06T04:03:59.406Z,13.96
2018-05-06T04:04:59.770Z,13.95
2018-05-06T04:05:59.537Z,13.92
2018-05-06T04:06:59.780Z,13.97
2018-05-06T04:07:59.782Z,13.93
2018-05-06T04:08:59.505Z,13.97
2018-05-06T04:09:59.527Z,13.93
2018-05-06T04:10:59.831Z,13.92
2018-05-06T04:11:59.618Z,13.93
2018-05-06T04:12:59.863Z,13.87
2018-05-06T04:13:59.883Z,13.9
2018-05-06T04:14:59.350Z,13.86
2018-05-06T04:15:59.655Z,13.95
2018-05-06T04:16:59.945Z,13.85
2018-05-06T04:17:59.975Z,13.86
2018-05-06T04:18:59.696Z,13.81
2018-05-06T04:20:00.007Z,13.87
2018-05-06T04:20:59.725Z,13.83
2018-05-06T04:22:00.014Z,13.85
2018-05-06T04:23:00.047Z,13.92
2018-05-06T04:24:00.066Z,13.89
2018-05-06T04:24:59.805Z,13.85
2018-05-06T04:25:59.823Z,13.87
2018-05-06T04:26:59.571Z,13.81
2018-05-06T04:27:59.941Z,13.86
2018-05-06T04:29:00.145Z,13.81
2018-05-06T04:30:00.188Z,13.95
2018-05-06T04:31:00.214Z,13.83
2018-05-06T04:32:00.279Z,13.81
2018-05-06T04:32:59.955Z,13.9
2018-05-06T04:34:00.245Z,13.75
2018-05-06T04:34:59.695Z,13.78
2018-05-06T04:36:00.283Z,13.85
2018-05-06T04:37:00.318Z,13.75
2018-05-06T04:38:00.301Z,13.77
2018-05-06T04:38:59.788Z,13.85
2018-05-06T04:40:00.354Z,13.79
2018-05-06T04:41:00.096Z,13.75
2018-05-06T04:42:00.372Z,13.78
2018-05-06T04:43:00.403Z,13.79
2018-05-06T04:44:00.154Z,13.77
2018-05-06T04:45:00.156Z,13.75
2018-05-06T04:46:00.466Z,13.79
2018-05-06T04:47:00.196Z,13.79
2018-05-06T04:48:00.210Z,13.75
2018-05-06T04:49:00.218Z,13.79
2018-05-06T04:50:00.253Z,13.79
2018-05-06T04:50:59.979Z,13.81
2018-05-06T04:52:00.646Z,13.78
2018-05-06T04:53:00.579Z,13.79
2018-05-06T04:54:00.621Z,13.79
2018-05-06T04:55:00.639Z,13.78
2018-05-06T04:56:00.681Z,13.78
2018-05-06T04:57:00.681Z,13.78
2018-05-06T04:58:00.702Z,13.77
2018-05-06T04:59:00.406Z,13.79
2018-05-06T05:00:00.439Z,13.78
2018-05-06T05:01:00.722Z,13.81
2018-05-06T05:02:00.764Z,13.78
2018-05-06T05:03:00.764Z,13.79
2018-05-06T05:04:00.772Z,13.78
2018-05-06T05:05:00.815Z,13.77
2018-05-06T05:06:00.549Z,13.78
2018-05-06T05:07:00.837Z,13.79
2018-05-06T05:08:00.870Z,13.78
2018-05-06T05:09:00.859Z,13.78
2018-05-06T05:10:00.884Z,13.78
2018-05-06T05:11:00.350Z,13.79
2018-05-06T05:12:00.943Z,13.78
2018-05-06T05:13:00.952Z,13.78
2018-05-06T05:14:00.955Z,13.78
2018-05-06T05:15:00.993Z,13.74
2018-05-06T05:16:01.001Z,13.86
2018-05-06T05:17:01.030Z,13.79
2018-05-06T05:18:01.025Z,13.81
2018-05-06T05:19:01.065Z,13.86
2018-05-06T05:20:00.802Z,13.79
2018-05-06T05:21:01.279Z,13.81
2018-05-06T05:22:01.088Z,13.81
2018-05-06T05:23:01.129Z,13.9
2018-05-06T05:24:00.648Z,13.89
2018-05-06T05:25:00.891Z,13.78
2018-05-06T05:26:00.906Z,13.89
2018-05-06T05:27:00.905Z,13.77
2018-05-06T05:28:01.195Z,13.83
2018-05-06T05:29:01.260Z,13.85
2018-05-06T05:30:01.252Z,13.92
2018-05-06T05:31:01.257Z,13.89
2018-05-06T05:32:01.309Z,13.92
2018-05-06T05:33:01.309Z,13.92
2018-05-06T05:34:01.056Z,13.83
2018-05-06T05:35:01.432Z,13.92
2018-05-06T05:36:01.334Z,13.85
2018-05-06T05:37:01.368Z,13.89
2018-05-06T05:38:01.412Z,13.9
2018-05-06T05:39:01.409Z,13.87
2018-05-06T05:40:01.428Z,13.87
2018-05-06T05:41:01.441Z,13.9
2018-05-06T05:42:01.484Z,13.87
2018-05-06T05:43:01.471Z,13.86
2018-05-06T05:44:01.210Z,13.89
2018-05-06T05:45:01.516Z,13.97
2018-05-06T05:46:01.524Z,13.96
2018-05-06T05:47:01.259Z,13.89
2018-05-06T05:48:01.753Z,13.95
2018-05-06T05:49:01.295Z,13.99
2018-05-06T05:50:01.337Z,13.9
2018-05-06T05:51:01.606Z,14.04
2018-05-06T05:52:01.073Z,13.96
2018-05-06T05:53:01.364Z,14.03
2018-05-06T05:54:01.676Z,14
2018-05-06T05:55:01.711Z,14.08
2018-05-06T05:56:01.772Z,14.05
2018-05-06T05:57:01.725Z,14.1
2018-05-06T05:58:01.730Z,14.14
2018-05-06T05:59:01.750Z,14.14
2018-05-06T06:00:01.795Z,14.15
2018-05-06T06:01:01.835Z,14.2
2018-05-06T06:02:01.532Z,14.15
2018-05-06T06:03:01.824Z,14.25
2018-05-06T06:04:01.889Z,14.15
2018-05-06T06:05:01.871Z,14.12
2018-05-06T06:06:01.605Z,14.17
2018-05-06T06:07:01.626Z,14.18
2018-05-06T06:08:01.636Z,14.28
2018-05-06T06:09:01.717Z,14.29
2018-05-06T06:10:01.663Z,14.25
2018-05-06T06:11:01.956Z,14.32
2018-05-06T06:12:01.997Z,14.41
2018-05-06T06:13:02.013Z,14.3
2018-05-06T06:14:02.012Z,14.44
2018-05-06T06:15:01.772Z,14.43
2018-05-06T06:16:01.781Z,14.51
2018-05-06T06:17:02.079Z,14.5
2018-05-06T06:18:02.106Z,14.48
2018-05-06T06:19:02.118Z,14.5
2018-05-06T06:20:02.132Z,14.55
2018-05-06T06:21:01.599Z,14.65
2018-05-06T06:22:02.178Z,14.59
2018-05-06T06:23:01.908Z,14.68
2018-05-06T06:24:02.220Z,14.72
2018-05-06T06:25:01.937Z,14.77
2018-05-06T06:26:02.237Z,14.78
2018-05-06T06:27:02.296Z,14.84
2018-05-06T06:28:02.278Z,14.81
2018-05-06T06:29:02.303Z,14.81
2018-05-06T06:30:02.310Z,14.94
2018-05-06T06:31:02.384Z,14.97
2018-05-06T06:32:01.790Z,14.97
2018-05-06T06:33:02.698Z,15.02
2018-05-06T06:34:02.383Z,15.04
2018-05-06T06:35:01.838Z,15.03
2018-05-06T06:36:02.408Z,15.14
2018-05-06T06:37:02.443Z,15.22
2018-05-06T06:38:02.474Z,15.19
2018-05-06T06:39:02.475Z,15.19
2018-05-06T06:40:02.233Z,15.24
2018-05-06T06:41:02.521Z,15.31
2018-05-06T06:42:02.260Z,15.33
2018-05-06T06:43:02.263Z,15.37
2018-05-06T06:44:02.004Z,15.36
2018-05-06T06:45:02.590Z,15.49
2018-05-06T06:46:02.355Z,15.51
2018-05-06T06:47:02.615Z,15.52
2018-05-06T06:48:02.827Z,15.54
2018-05-06T06:49:02.646Z,15.59
2018-05-06T06:50:02.685Z,15.64
2018-05-06T06:51:02.698Z,15.68
2018-05-06T06:52:02.144Z,15.72
2018-05-06T06:53:02.724Z,15.77
2018-05-06T06:54:02.485Z,15.77
2018-05-06T06:55:02.475Z,15.86
2018-05-06T06:56:02.795Z,15.92
2018-05-06T06:57:02.539Z,15.98
2018-05-06T06:58:02.538Z,16.01
2018-05-06T06:59:02.847Z,16.09
2018-05-06T07:00:02.580Z,16.15
2018-05-06T07:01:02.591Z,16.12
2018-05-06T07:02:02.645Z,16.24
2018-05-06T07:03:02.914Z,16.17
2018-05-06T07:04:02.930Z,16.36
2018-05-06T07:05:03.010Z,16.43
2018-05-06T07:06:02.811Z,16.38
2018-05-06T07:07:02.989Z,16.47
2018-05-06T07:08:02.736Z,16.54
2018-05-06T07:09:02.465Z,16.57
2018-05-06T07:10:02.775Z,16.6
2018-05-06T07:11:03.085Z,16.65
2018-05-06T07:12:03.083Z,16.65
2018-05-06T07:13:02.807Z,16.75
2018-05-06T07:14:03.118Z,16.78
2018-05-06T07:15:03.144Z,16.84
2018-05-06T07:16:02.898Z,16.91
2018-05-06T07:17:03.171Z,17.02
2018-05-06T07:18:02.657Z,17.02
2018-05-06T07:19:03.193Z,17.04
2018-05-06T07:20:03.248Z,17.11
2018-05-06T07:21:03.245Z,17.08
2018-05-06T07:22:03.303Z,17.22
2018-05-06T07:23:03.279Z,17.22
2018-05-06T07:24:03.020Z,17.34
2018-05-06T07:25:03.340Z,17.36
2018-05-06T07:26:03.070Z,17.52
2018-05-06T07:27:03.386Z,17.63
2018-05-06T07:28:03.110Z,17.59
2018-05-06T07:29:03.385Z,17.65
2018-05-06T07:30:03.686Z,17.76
2018-05-06T07:31:02.877Z,17.74
2018-05-06T07:32:03.165Z,17.87
2018-05-06T07:33:03.215Z,18
2018-05-06T07:34:03.488Z,17.97
2018-05-06T07:35:03.520Z,18.05
2018-05-06T07:36:03.004Z,18.11
2018-05-06T07:37:03.553Z,18.2
2018-05-06T07:38:03.043Z,18.29
2018-05-06T07:39:03.593Z,18.43
2018-05-06T07:40:03.616Z,18.5
2018-05-06T07:41:03.628Z,18.5
2018-05-06T07:42:03.403Z,18.55
2018-05-06T07:43:03.677Z,18.63
2018-05-06T07:44:03.702Z,18.66
2018-05-06T07:45:03.444Z,18.73
2018-05-06T07:46:03.739Z,18.86
2018-05-06T07:47:03.470Z,18.9
2018-05-06T07:48:03.778Z,18.95
2018-05-06T07:49:03.984Z,19.09
2018-05-06T07:50:03.827Z,19.14
2018-05-06T07:51:03.551Z,19.16
2018-05-06T07:52:03.295Z,19.24
2018-05-06T07:53:03.593Z,19.33
2018-05-06T07:54:03.905Z,19.37
2018-05-06T07:55:03.928Z,19.41
2018-05-06T07:56:03.638Z,19.55
2018-05-06T07:57:03.650Z,19.59
2018-05-06T07:58:03.689Z,19.66
2018-05-06T07:59:03.707Z,19.71
2018-05-06T08:00:04.006Z,19.76
2018-05-06T08:01:03.739Z,19.85
2018-05-06T08:02:03.767Z,19.94
2018-05-06T08:03:04.081Z,20.07
2018-05-06T08:04:03.817Z,20.06
2018-05-06T08:05:03.823Z,20.18
2018-05-06T08:06:03.842Z,20.25
2018-05-06T08:07:03.871Z,20.19
2018-05-06T08:08:04.175Z,20.39
2018-05-06T08:09:04.232Z,20.43
2018-05-06T08:10:04.217Z,20.51
2018-05-06T08:11:03.658Z,20.51
2018-05-06T08:12:04.240Z,20.51
2018-05-06T08:13:04.277Z,20.6
2018-05-06T08:14:04.021Z,20.63
2018-05-06T08:15:04.312Z,20.7
2018-05-06T08:16:04.318Z,20.72
2018-05-06T08:17:03.791Z,20.77
2018-05-06T08:18:03.807Z,20.95
2018-05-06T08:19:03.812Z,20.95
2018-05-06T08:20:04.405Z,21.12
2018-05-06T08:21:04.134Z,21.14
2018-05-06T08:22:04.205Z,21.2
2018-05-06T08:23:04.472Z,21.33
2018-05-06T08:24:04.504Z,21.3
2018-05-06T08:25:04.516Z,21.42
2018-05-06T08:26:04.263Z,21.43
2018-05-06T08:27:04.276Z,21.58
2018-05-06T08:28:04.011Z,21.6
2018-05-06T08:29:04.311Z,21.67
2018-05-06T08:30:04.335Z,21.82
2018-05-06T08:31:04.747Z,21.92
2018-05-06T08:32:04.388Z,21.99
2018-05-06T08:33:04.392Z,22.06
2018-05-06T08:34:04.412Z,22.2
2018-05-06T08:35:04.442Z,22.26
2018-05-06T08:36:04.722Z,22.38
2018-05-06T08:37:04.478Z,22.5
2018-05-06T08:38:04.786Z,22.55
2018-05-06T08:39:04.822Z,22.54
2018-05-06T08:40:04.557Z,22.6
2018-05-06T08:41:04.561Z,22.65
2018-05-06T08:42:04.856Z,22.72
2018-05-06T08:43:04.630Z,22.8
2018-05-06T08:44:04.622Z,22.88
2018-05-06T08:45:04.931Z,22.91
2018-05-06T08:46:04.934Z,23.02
2018-05-06T08:47:04.988Z,23.02
2018-05-06T08:48:04.716Z,23.09
2018-05-06T08:49:04.761Z,23.1
2018-05-06T08:50:04.782Z,23.12
2018-05-06T08:51:04.786Z,23.18
2018-05-06T08:52:04.564Z,23.21
2018-05-06T08:53:04.841Z,23.23
2018-05-06T08:54:04.857Z,23.31
2018-05-06T08:55:05.148Z,23.36
2018-05-06T08:56:04.904Z,23.48
2018-05-06T08:57:05.176Z,23.55
2018-05-06T08:58:05.216Z,23.63
2018-05-06T08:59:04.969Z,23.68
2018-05-06T09:00:04.983Z,23.76
2018-05-06T09:01:05.289Z,23.92
2018-05-06T09:02:05.286Z,23.88
2018-05-06T09:03:04.750Z,23.92
2018-05-06T09:04:05.371Z,23.87
2018-05-06T09:05:05.092Z,24.05
2018-05-06T09:06:05.140Z,24.05
2018-05-06T09:07:05.444Z,24.1
2018-05-06T09:08:05.437Z,24.11
2018-05-06T09:09:04.908Z,24.17
2018-05-06T09:10:05.215Z,24.23
2018-05-06T09:11:05.328Z,24.23
2018-05-06T09:12:05.252Z,24.38
2018-05-06T09:13:05.558Z,24.42
2018-05-06T09:14:05.272Z,24.47
2018-05-06T09:15:05.301Z,24.4
2018-05-06T09:16:05.625Z,24.53
2018-05-06T09:17:05.358Z,24.51
2018-05-06T09:18:05.661Z,24.65
2018-05-06T09:19:05.679Z,24.6
2018-05-06T09:20:05.446Z,24.69
2018-05-06T09:21:05.729Z,24.77
2018-05-06T09:22:05.754Z,24.7
2018-05-06T09:23:05.482Z,24.69
2018-05-06T09:24:05.799Z,24.88
2018-05-06T09:25:05.831Z,24.91
2018-05-06T09:26:05.561Z,24.98
2018-05-06T09:27:05.864Z,25.11
2018-05-06T09:28:05.886Z,25.13
2018-05-06T09:29:05.929Z,25.17
2018-05-06T09:30:05.671Z,25.18
2018-05-06T09:31:05.957Z,25.26
2018-05-06T09:32:05.444Z,25.31
2018-05-06T09:33:06.019Z,25.44
2018-05-06T09:34:06.030Z,25.55
2018-05-06T09:35:05.502Z,25.54
2018-05-06T09:36:06.056Z,25.58
2018-05-06T09:37:06.096Z,25.68
2018-05-06T09:38:06.156Z,25.75
2018-05-06T09:39:05.847Z,25.8
2018-05-06T09:40:06.176Z,25.88
2018-05-06T09:41:05.924Z,25.91
2018-05-06T09:42:06.217Z,25.98
2018-05-06T09:43:05.691Z,26.07
2018-05-06T09:44:06.246Z,26.1
2018-05-06T09:45:06.293Z,26.09
2018-05-06T09:46:06.049Z,26.25
2018-05-06T09:47:06.331Z,26.23
2018-05-06T09:48:06.070Z,26.33
2018-05-06T09:49:06.368Z,26.29
2018-05-06T09:50:06.400Z,26.36
2018-05-06T09:51:06.142Z,26.44
2018-05-06T09:52:06.216Z,26.52
2018-05-06T09:53:06.199Z,26.58
2018-05-06T09:54:06.221Z,26.65
2018-05-06T09:55:05.949Z,26.62
2018-05-06T09:56:05.976Z,26.73
2018-05-06T09:57:06.289Z,26.8
2018-05-06T09:58:06.320Z,26.85
2018-05-06T09:59:06.641Z,26.9
2018-05-06T10:00:06.089Z,26.95
2018-05-06T10:01:06.679Z,27
2018-05-06T10:02:06.698Z,27.08
2018-05-06T10:03:06.444Z,27.03
2018-05-06T10:04:06.746Z,27.03
2018-05-06T10:05:06.488Z,27.14
2018-05-06T10:06:06.796Z,27.22
2018-05-06T10:07:06.538Z,27.32
2018-05-06T10:08:06.847Z,27.36
2018-05-06T10:09:06.603Z,27.47
2018-05-06T10:10:06.619Z,27.49
2018-05-06T10:11:06.901Z,27.42
2018-05-06T10:12:06.937Z,27.44
2018-05-06T10:13:06.405Z,27.54
2018-05-06T10:14:06.708Z,27.54
2018-05-06T10:15:06.441Z,27.6
2018-05-06T10:16:06.775Z,27.67
2018-05-06T10:17:06.507Z,27.7
2018-05-06T10:18:07.093Z,27.83
2018-05-06T10:19:06.829Z,27.83
2018-05-06T10:20:06.851Z,27.83
2018-05-06T10:21:07.169Z,27.95
2018-05-06T10:22:07.177Z,28
2018-05-06T10:23:07.268Z,28.1
2018-05-06T10:24:07.240Z,28.08
2018-05-06T10:25:07.287Z,28.11
2018-05-06T10:26:06.738Z,28.23
2018-05-06T10:27:07.043Z,28.33
2018-05-06T10:28:07.701Z,28.33
2018-05-06T10:29:07.102Z,28.47
2018-05-06T10:30:07.400Z,28.37
2018-05-06T10:31:06.866Z,28.51
2018-05-06T10:32:07.467Z,28.48
2018-05-06T10:33:07.181Z,28.48
2018-05-06T10:34:07.227Z,28.64
2018-05-06T10:35:07.529Z,28.69
2018-05-06T10:36:06.979Z,28.69
2018-05-06T10:37:07.561Z,28.78
2018-05-06T10:38:07.699Z,28.86
2018-05-06T10:39:07.069Z,28.82
2018-05-06T10:40:07.377Z,28.76
2018-05-06T10:41:07.141Z,28.89
2018-05-06T10:42:07.708Z,28.89
2018-05-06T10:43:07.441Z,28.94
2018-05-06T10:44:08.062Z,28.98
2018-05-06T10:45:07.793Z,29.01
2018-05-06T10:46:07.257Z,29.02
2018-05-06T10:47:07.591Z,29.07
2018-05-06T10:48:07.595Z,29.13
2018-05-06T10:49:07.853Z,29.2
2018-05-06T10:50:07.937Z,29.34
2018-05-06T10:51:07.964Z,29.39
2018-05-06T10:52:07.410Z,29.35
2018-05-06T10:53:07.723Z,29.42
2018-05-06T10:54:07.460Z,29.5
2018-05-06T10:55:07.492Z,29.6
2018-05-06T10:56:08.078Z,29.61
2018-05-06T10:57:08.107Z,29.63
2018-05-06T10:58:08.177Z,29.72
2018-05-06T10:59:07.884Z,29.78
2018-05-06T11:00:07.629Z,29.78
2018-05-06T11:01:07.938Z,29.98
2018-05-06T11:02:08.257Z,30.03
2018-05-06T11:03:07.748Z,30.08
2018-05-06T11:04:08.285Z,30.05
2018-05-06T11:05:08.337Z,30.23
2018-05-06T11:06:08.046Z,30.16
2018-05-06T11:07:08.100Z,30.19
2018-05-06T11:08:08.127Z,30.28
2018-05-06T11:09:08.153Z,30.3
2018-05-06T11:10:08.605Z,30.4
2018-05-06T11:11:08.201Z,30.3
2018-05-06T11:12:07.933Z,30.47
2018-05-06T11:13:08.294Z,30.44
2018-05-06T11:14:08.267Z,30.51
2018-05-06T11:15:08.590Z,30.48
2018-05-06T11:16:08.353Z,30.47
2018-05-06T11:17:08.663Z,30.55
2018-05-06T11:18:08.429Z,30.62
2018-05-06T11:19:08.141Z,30.68
2018-05-06T11:20:08.715Z,30.59
2018-05-06T11:21:08.469Z,30.73
2018-05-06T11:22:08.858Z,30.83
2018-05-06T11:23:08.575Z,30.78
2018-05-06T11:24:08.837Z,30.88
2018-05-06T11:25:08.862Z,30.84
2018-05-06T11:26:08.610Z,30.85
2018-05-06T11:27:08.619Z,30.92
2018-05-06T11:28:08.684Z,31.02
2018-05-06T11:29:08.689Z,31.02
2018-05-06T11:30:09.010Z,31.02
2018-05-06T11:31:08.783Z,31.1
2018-05-06T11:32:08.789Z,31.15
2018-05-06T11:33:08.855Z,31.06
2018-05-06T11:34:09.117Z,31.12
2018-05-06T11:35:08.868Z,31.14
2018-05-06T11:36:08.610Z,31.15
2018-05-06T11:37:09.197Z,31.2
2018-05-06T11:38:08.661Z,31.22
2018-05-06T11:39:09.261Z,31.27
2018-05-06T11:40:09.059Z,31.25
2018-05-06T11:41:09.156Z,31.25
2018-05-06T11:42:09.063Z,31.28
2018-05-06T11:43:09.083Z,31.29
2018-05-06T11:44:09.395Z,31.29
2018-05-06T11:45:09.134Z,31.27
2018-05-06T11:46:09.447Z,31.29
2018-05-06T11:47:09.198Z,31.31
2018-05-06T11:48:09.779Z,31.33
2018-05-06T11:49:08.984Z,31.37
2018-05-06T11:50:09.563Z,31.43
2018-05-06T11:51:09.581Z,31.39
2018-05-06T11:52:09.605Z,31.36
2018-05-06T11:53:09.675Z,31.36
2018-05-06T11:54:09.694Z,31.43
2018-05-06T11:55:09.154Z,31.42
2018-05-06T11:56:09.761Z,31.4
2018-05-06T11:57:09.209Z,31.52
2018-05-06T11:58:09.496Z,31.54
2018-05-06T11:59:09.802Z,31.55
2018-05-06T12:00:09.864Z,31.64
2018-05-06T12:01:09.896Z,31.7
2018-05-06T12:02:09.935Z,31.71
2018-05-06T12:03:09.941Z,31.77
2018-05-06T12:04:09.708Z,31.85
2018-05-06T12:05:09.712Z,31.89
2018-05-06T12:06:10.017Z,31.92
2018-05-06T12:07:10.041Z,31.85
2018-05-06T12:08:09.791Z,31.9
2018-05-06T12:09:09.828Z,31.96
2018-05-06T12:10:10.353Z,32.03
2018-05-06T12:11:09.904Z,32.11
2018-05-06T12:12:09.965Z,32.08
2018-05-06T12:13:10.247Z,32.14
2018-05-06T12:14:10.240Z,32.15
2018-05-06T12:15:10.016Z,32.26
2018-05-06T12:16:09.751Z,32.3
2018-05-06T12:17:10.052Z,32.33
2018-05-06T12:18:10.376Z,32.36
2018-05-06T12:19:10.479Z,32.41
2018-05-06T12:20:10.428Z,32.48
2018-05-06T12:21:10.167Z,32.48
2018-05-06T12:22:09.942Z,32.46
2018-05-06T12:23:10.514Z,32.48
2018-05-06T12:24:10.416Z,32.55
2018-05-06T12:25:10.581Z,32.6
2018-05-06T12:26:10.599Z,32.68
2018-05-06T12:27:10.087Z,32.68
2018-05-06T12:28:10.690Z,32.71
2018-05-06T12:29:10.724Z,32.75
2018-05-06T12:30:10.714Z,32.71
2018-05-06T12:31:10.491Z,32.68
2018-05-06T12:32:10.516Z,32.75
2018-05-06T12:33:10.817Z,32.78
2018-05-06T12:34:10.575Z,32.85
2018-05-06T12:35:10.609Z,32.85
2018-05-06T12:36:10.352Z,32.86
2018-05-06T12:37:10.938Z,32.92
2018-05-06T12:38:10.688Z,32.93
2018-05-06T12:39:10.993Z,32.96
2018-05-06T12:40:10.743Z,33.02
2018-05-06T12:41:10.786Z,32.92
2018-05-06T12:42:10.788Z,32.87
2018-05-06T12:43:11.260Z,33.05
2018-05-06T12:44:10.848Z,33.08
2018-05-06T12:45:11.197Z,33.01
2018-05-06T12:46:10.926Z,33.08
2018-05-06T12:47:10.666Z,33.07
2018-05-06T12:48:11.269Z,33.05
2018-05-06T12:49:10.728Z,33.15
2018-05-06T12:50:11.335Z,33.12
2018-05-06T12:51:11.380Z,33.07
2018-05-06T12:52:11.374Z,33.05
2018-05-06T12:53:11.132Z,32.97
2018-05-06T12:54:11.439Z,32.96
2018-05-06T12:55:11.276Z,33
2018-05-06T12:56:11.228Z,32.83